sensor_id;sensor_type;location;lat;lon;timestamp;temperature;humidity
48946;DHT22;34999;50.940;3.998;2023-07-13T00:01:14;16.10;3.00
48946;DHT22;34999;50.940;3.998;2023-07-13T00:03:43;16.10;7.60
48946;DHT22;34999;50.940;3.998;2023-07-13T00:06:12;16.00;9.40
48946;DHT22;34999;50.940;3.998;2023-07-13T00:08:40;16.00;16.60
48946;DHT22;34999;50.940;3.998;2023-07-13T00:11:08;15.90;18.30
48946;DHT22;34999;50.940;3.998;2023-07-13T00:13:38;15.90;22.50
48946;DHT22;34999;50.940;3.998;2023-07-13T00:16:08;15.90;23.00
48946;DHT22;34999;50.940;3.998;2023-07-13T00:18:37;15.90;24.40
48946;DHT22;34999;50.940;3.998;2023-07-13T00:21:06;15.80;27.00
48946;DHT22;34999;50.940;3.998;2023-07-13T00:23:36;15.80;29.60
48946;DHT22;34999;50.940;3.998;2023-07-13T00:26:06;15.80;35.40
48946;DHT22;34999;50.940;3.998;2023-07-13T00:28:36;15.80;36.70
48946;DHT22;34999;50.940;3.998;2023-07-13T00:31:06;15.70;40.70
48946;DHT22;34999;50.940;3.998;2023-07-13T00:33:35;15.70;44.40
48946;DHT22;34999;50.940;3.998;2023-07-13T00:36:04;15.70;45.10
48946;DHT22;34999;50.940;3.998;2023-07-13T00:38:32;15.80;43.70
48946;DHT22;34999;50.940;3.998;2023-07-13T00:41:01;15.70;46.70
48946;DHT22;34999;50.940;3.998;2023-07-13T00:43:31;15.70;51.10
48946;DHT22;34999;50.940;3.998;2023-07-13T00:46:28;15.70;49.20
48946;DHT22;34999;50.940;3.998;2023-07-13T00:48:59;15.60;51.60
48946;DHT22;34999;50.940;3.998;2023-07-13T00:51:32;15.60;56.80
48946;DHT22;34999;50.940;3.998;2023-07-13T00:54:06;15.60;63.60
48946;DHT22;34999;50.940;3.998;2023-07-13T00:56:34;15.60;67.30
48946;DHT22;34999;50.940;3.998;2023-07-13T00:59:05;15.50;64.40
48946;DHT22;34999;50.940;3.998;2023-07-13T01:01:36;15.50;68.00
48946;DHT22;34999;50.940;3.998;2023-07-13T01:04:04;15.50;69.50
48946;DHT22;34999;50.940;3.998;2023-07-13T01:06:35;15.50;72.00
48946;DHT22;34999;50.940;3.998;2023-07-13T01:09:05;15.50;74.10
48946;DHT22;34999;50.940;3.998;2023-07-13T01:11:34;15.40;78.60
48946;DHT22;34999;50.940;3.998;2023-07-13T01:14:03;15.40;81.10
48946;DHT22;34999;50.940;3.998;2023-07-13T01:16:33;15.40;84.40
48946;DHT22;34999;50.940;3.998;2023-07-13T01:19:08;15.40;86.90
48946;DHT22;34999;50.940;3.998;2023-07-13T01:21:41;15.40;90.00
48946;DHT22;34999;50.940;3.998;2023-07-13T01:24:10;15.30;91.50
48946;DHT22;34999;50.940;3.998;2023-07-13T01:26:38;15.30;92.60
48946;DHT22;34999;50.940;3.998;2023-07-13T01:29:06;15.30;93.50
48946;DHT22;34999;50.940;3.998;2023-07-13T01:31:35;15.30;94.20
48946;DHT22;34999;50.940;3.998;2023-07-13T01:34:03;15.30;94.40
48946;DHT22;34999;50.940;3.998;2023-07-13T01:36:32;15.20;96.60
48946;DHT22;34999;50.940;3.998;2023-07-13T01:39:02;15.20;97.60
48946;DHT22;34999;50.940;3.998;2023-07-13T01:41:30;15.20;98.10
48946;DHT22;34999;50.940;3.998;2023-07-13T01:43:58;15.20;99.00
48946;DHT22;34999;50.940;3.998;2023-07-13T01:46:27;15.20;99.90
48946;DHT22;34999;50.940;3.998;2023-07-13T01:48:55;15.20;99.90
48946;DHT22;34999;50.940;3.998;2023-07-13T01:51:24;15.10;99.90
48946;DHT22;34999;50.940;3.998;2023-07-13T01:53:52;15.10;99.90
48946;DHT22;34999;50.940;3.998;2023-07-13T01:56:22;15.10;99.90
48946;DHT22;34999;50.940;3.998;2023-07-13T01:58:52;15.00;99.90
48946;DHT22;34999;50.940;3.998;2023-07-13T02:01:20;15.10;99.90
48946;DHT22;34999;50.940;3.998;2023-07-13T02:03:48;15.00;99.90
48946;DHT22;34999;50.940;3.998;2023-07-13T02:06:16;15.00;99.90
48946;DHT22;34999;50.940;3.998;2023-07-13T02:08:45;15.00;99.90
48946;DHT22;34999;50.940;3.998;2023-07-13T02:11:14;15.00;99.90
48946;DHT22;34999;50.940;3.998;2023-07-13T02:13:43;15.00;99.90
48946;DHT22;34999;50.940;3.998;2023-07-13T02:16:12;14.90;99.90
48946;DHT22;34999;50.940;3.998;2023-07-13T02:18:40;14.90;99.90
48946;DHT22;34999;50.940;3.998;2023-07-13T02:21:09;14.80;99.90
48946;DHT22;34999;50.940;3.998;2023-07-13T02:23:37;14.80;99.90
48946;DHT22;34999;50.940;3.998;2023-07-13T02:26:05;14.70;99.90
48946;DHT22;34999;50.940;3.998;2023-07-13T02:28:34;14.80;99.90
48946;DHT22;34999;50.940;3.998;2023-07-13T02:31:08;14.70;99.90
48946;DHT22;34999;50.940;3.998;2023-07-13T02:33:37;14.70;99.90
48946;DHT22;34999;50.940;3.998;2023-07-13T02:36:05;14.70;99.90
48946;DHT22;34999;50.940;3.998;2023-07-13T02:38:34;14.70;99.90
48946;DHT22;34999;50.940;3.998;2023-07-13T02:41:03;14.60;99.90
48946;DHT22;34999;50.940;3.998;2023-07-13T02:43:31;14.60;99.90
48946;DHT22;34999;50.940;3.998;2023-07-13T02:46:00;14.60;99.90
48946;DHT22;34999;50.940;3.998;2023-07-13T02:48:38;14.50;99.90
48946;DHT22;34999;50.940;3.998;2023-07-13T02:51:07;14.50;99.90
48946;DHT22;34999;50.940;3.998;2023-07-13T02:53:35;14.40;99.90
48946;DHT22;34999;50.940;3.998;2023-07-13T02:56:04;14.40;99.90
48946;DHT22;34999;50.940;3.998;2023-07-13T02:58:33;14.40;99.90
48946;DHT22;34999;50.940;3.998;2023-07-13T03:01:06;14.40;99.90
48946;DHT22;34999;50.940;3.998;2023-07-13T03:03:36;14.40;99.90
48946;DHT22;34999;50.940;3.998;2023-07-13T03:06:05;14.30;99.90
48946;DHT22;34999;50.940;3.998;2023-07-13T03:08:36;14.30;99.90
48946;DHT22;34999;50.940;3.998;2023-07-13T03:11:06;14.30;99.90
48946;DHT22;34999;50.940;3.998;2023-07-13T03:13:36;14.20;99.90
48946;DHT22;34999;50.940;3.998;2023-07-13T03:16:05;14.20;99.90
48946;DHT22;34999;50.940;3.998;2023-07-13T03:18:36;14.20;99.90
48946;DHT22;34999;50.940;3.998;2023-07-13T03:21:05;14.20;99.90
48946;DHT22;34999;50.940;3.998;2023-07-13T03:23:33;14.20;99.90
48946;DHT22;34999;50.940;3.998;2023-07-13T03:26:02;14.20;99.90
48946;DHT22;34999;50.940;3.998;2023-07-13T03:28:31;14.20;99.90
48946;DHT22;34999;50.940;3.998;2023-07-13T03:31:01;14.10;99.90
48946;DHT22;34999;50.940;3.998;2023-07-13T03:33:30;14.00;99.90
48946;DHT22;34999;50.940;3.998;2023-07-13T03:35:59;14.00;99.90
48946;DHT22;34999;50.940;3.998;2023-07-13T03:38:28;14.10;99.90
48946;DHT22;34999;50.940;3.998;2023-07-13T03:40:56;14.10;99.90
48946;DHT22;34999;50.940;3.998;2023-07-13T03:43:24;14.10;99.90
48946;DHT22;34999;50.940;3.998;2023-07-13T03:45:53;14.20;99.90
48946;DHT22;34999;50.940;3.998;2023-07-13T03:48:21;14.30;99.90
48946;DHT22;34999;50.940;3.998;2023-07-13T03:50:49;14.30;99.90
48946;DHT22;34999;50.940;3.998;2023-07-13T03:53:19;14.30;99.90
48946;DHT22;34999;50.940;3.998;2023-07-13T03:55:47;14.30;99.90
48946;DHT22;34999;50.940;3.998;2023-07-13T03:58:31;14.30;99.90
48946;DHT22;34999;50.940;3.998;2023-07-13T04:01:01;14.40;99.90
48946;DHT22;34999;50.940;3.998;2023-07-13T04:03:29;14.50;99.90
48946;DHT22;34999;50.940;3.998;2023-07-13T04:06:00;14.50;99.90
48946;DHT22;34999;50.940;3.998;2023-07-13T04:08:32;14.50;99.90
48946;DHT22;34999;50.940;3.998;2023-07-13T04:11:01;14.60;99.90
48946;DHT22;34999;50.940;3.998;2023-07-13T04:13:30;14.50;99.90
48946;DHT22;34999;50.940;3.998;2023-07-13T04:15:58;14.60;99.90
48946;DHT22;34999;50.940;3.998;2023-07-13T04:18:27;14.60;99.90
48946;DHT22;34999;50.940;3.998;2023-07-13T04:20:55;14.60;99.90
48946;DHT22;34999;50.940;3.998;2023-07-13T04:23:23;14.60;99.90
48946;DHT22;34999;50.940;3.998;2023-07-13T04:25:53;14.60;99.90
48946;DHT22;34999;50.940;3.998;2023-07-13T04:28:23;14.60;99.90
48946;DHT22;34999;50.940;3.998;2023-07-13T04:30:52;14.60;99.90
48946;DHT22;34999;50.940;3.998;2023-07-13T04:33:20;14.60;99.90
48946;DHT22;34999;50.940;3.998;2023-07-13T04:35:50;14.60;99.90
48946;DHT22;34999;50.940;3.998;2023-07-13T04:38:21;14.60;99.90
48946;DHT22;34999;50.940;3.998;2023-07-13T04:40:54;14.60;99.90
48946;DHT22;34999;50.940;3.998;2023-07-13T04:43:22;14.70;99.90
48946;DHT22;34999;50.940;3.998;2023-07-13T04:45:51;14.70;99.90
48946;DHT22;34999;50.940;3.998;2023-07-13T04:48:20;14.80;99.90
48946;DHT22;34999;50.940;3.998;2023-07-13T04:50:54;14.80;99.90
48946;DHT22;34999;50.940;3.998;2023-07-13T04:53:24;14.90;99.90
48946;DHT22;34999;50.940;3.998;2023-07-13T04:55:54;14.90;99.90
48946;DHT22;34999;50.940;3.998;2023-07-13T04:58:23;14.90;99.90
48946;DHT22;34999;50.940;3.998;2023-07-13T05:00:52;15.00;99.90
48946;DHT22;34999;50.940;3.998;2023-07-13T05:03:20;15.00;99.90
48946;DHT22;34999;50.940;3.998;2023-07-13T05:05:56;15.10;99.90
48946;DHT22;34999;50.940;3.998;2023-07-13T05:08:25;15.10;99.90
48946;DHT22;34999;50.940;3.998;2023-07-13T05:10:55;15.10;99.90
48946;DHT22;34999;50.940;3.998;2023-07-13T05:13:23;15.20;99.90
48946;DHT22;34999;50.940;3.998;2023-07-13T05:15:57;15.20;99.90
48946;DHT22;34999;50.940;3.998;2023-07-13T05:18:26;15.30;99.90
48946;DHT22;34999;50.940;3.998;2023-07-13T05:20:58;15.20;99.90
48946;DHT22;34999;50.940;3.998;2023-07-13T05:23:27;15.30;99.90
48946;DHT22;34999;50.940;3.998;2023-07-13T05:25:57;15.30;99.90
48946;DHT22;34999;50.940;3.998;2023-07-13T05:28:26;15.30;99.90
48946;DHT22;34999;50.940;3.998;2023-07-13T05:30:56;15.40;99.90
48946;DHT22;34999;50.940;3.998;2023-07-13T05:33:25;15.50;99.90
48946;DHT22;34999;50.940;3.998;2023-07-13T05:35:53;15.50;99.90
48946;DHT22;34999;50.940;3.998;2023-07-13T05:38:22;15.60;99.90
48946;DHT22;34999;50.940;3.998;2023-07-13T05:40:50;15.70;99.90
48946;DHT22;34999;50.940;3.998;2023-07-13T05:43:20;15.80;99.90
48946;DHT22;34999;50.940;3.998;2023-07-13T05:45:48;15.90;99.90
48946;DHT22;34999;50.940;3.998;2023-07-13T05:48:17;15.90;99.90
48946;DHT22;34999;50.940;3.998;2023-07-13T05:50:46;16.10;99.90
48946;DHT22;34999;50.940;3.998;2023-07-13T05:53:15;16.10;99.90
48946;DHT22;34999;50.940;3.998;2023-07-13T05:55:44;16.10;99.90
48946;DHT22;34999;50.940;3.998;2023-07-13T05:58:14;16.20;99.90
48946;DHT22;34999;50.940;3.998;2023-07-13T06:00:44;16.20;99.90
48946;DHT22;34999;50.940;3.998;2023-07-13T06:03:12;16.30;99.90
48946;DHT22;34999;50.940;3.998;2023-07-13T06:05:42;16.40;99.90
48946;DHT22;34999;50.940;3.998;2023-07-13T06:08:10;16.40;99.90
48946;DHT22;34999;50.940;3.998;2023-07-13T06:10:39;16.60;99.90
48946;DHT22;34999;50.940;3.998;2023-07-13T06:13:07;16.60;99.90
48946;DHT22;34999;50.940;3.998;2023-07-13T06:15:35;16.70;99.90
48946;DHT22;34999;50.940;3.998;2023-07-13T06:18:05;16.70;99.90
48946;DHT22;34999;50.940;3.998;2023-07-13T06:20:34;16.70;99.90
48946;DHT22;34999;50.940;3.998;2023-07-13T06:23:02;16.80;99.90
48946;DHT22;34999;50.940;3.998;2023-07-13T06:25:30;16.80;99.90
48946;DHT22;34999;50.940;3.998;2023-07-13T06:27:59;16.90;99.90
48946;DHT22;34999;50.940;3.998;2023-07-13T06:30:27;17.00;99.90
48946;DHT22;34999;50.940;3.998;2023-07-13T06:32:55;17.10;99.90
48946;DHT22;34999;50.940;3.998;2023-07-13T06:35:25;17.20;99.90
48946;DHT22;34999;50.940;3.998;2023-07-13T06:37:54;17.30;99.90
48946;DHT22;34999;50.940;3.998;2023-07-13T06:40:22;17.40;98.10
48946;DHT22;34999;50.940;3.998;2023-07-13T06:42:50;17.50;98.30
48946;DHT22;34999;50.940;3.998;2023-07-13T06:45:19;17.80;95.80
48946;DHT22;34999;50.940;3.998;2023-07-13T06:47:47;17.90;92.60
48946;DHT22;34999;50.940;3.998;2023-07-13T06:50:16;18.00;89.80
48946;DHT22;34999;50.940;3.998;2023-07-13T06:52:46;18.10;89.90
48946;DHT22;34999;50.940;3.998;2023-07-13T06:55:14;18.30;84.90
48946;DHT22;34999;50.940;3.998;2023-07-13T06:57:43;18.50;76.10
48946;DHT22;34999;50.940;3.998;2023-07-13T07:00:12;18.60;71.60
48946;DHT22;34999;50.940;3.998;2023-07-13T07:02:40;18.70;65.60
48946;DHT22;34999;50.940;3.998;2023-07-13T07:05:09;18.90;59.00
48946;DHT22;34999;50.940;3.998;2023-07-13T07:07:37;19.00;62.70
48946;DHT22;34999;50.940;3.998;2023-07-13T07:10:08;19.10;48.40
48946;DHT22;34999;50.940;3.998;2023-07-13T07:12:36;19.10;37.10
48946;DHT22;34999;50.940;3.998;2023-07-13T07:15:05;19.10;46.20
48946;DHT22;34999;50.940;3.998;2023-07-13T07:17:34;19.50;39.20
48946;DHT22;34999;50.940;3.998;2023-07-13T07:20:03;19.70;21.70
48946;DHT22;34999;50.940;3.998;2023-07-13T07:22:32;20.00;1.00
48946;DHT22;34999;50.940;3.998;2023-07-13T07:25:01;20.30;1.00
48946;DHT22;34999;50.940;3.998;2023-07-13T07:27:30;20.30;1.00
48946;DHT22;34999;50.940;3.998;2023-07-13T07:30:02;20.50;1.00
48946;DHT22;34999;50.940;3.998;2023-07-13T07:32:34;20.60;1.00
48946;DHT22;34999;50.940;3.998;2023-07-13T07:35:06;20.50;1.00
48946;DHT22;34999;50.940;3.998;2023-07-13T07:37:34;20.70;1.00
48946;DHT22;34999;50.940;3.998;2023-07-13T07:40:07;20.70;1.00
48946;DHT22;34999;50.940;3.998;2023-07-13T07:42:40;20.50;1.00
48946;DHT22;34999;50.940;3.998;2023-07-13T07:45:09;20.50;1.00
48946;DHT22;34999;50.940;3.998;2023-07-13T07:47:38;20.70;1.00
48946;DHT22;34999;50.940;3.998;2023-07-13T07:50:07;20.80;1.00
48946;DHT22;34999;50.940;3.998;2023-07-13T07:52:36;21.50;1.00
48946;DHT22;34999;50.940;3.998;2023-07-13T07:55:06;22.00;1.00
48946;DHT22;34999;50.940;3.998;2023-07-13T07:57:38;22.20;1.00
48946;DHT22;34999;50.940;3.998;2023-07-13T08:00:11;22.30;1.00
48946;DHT22;34999;50.940;3.998;2023-07-13T08:02:44;22.10;1.00
48946;DHT22;34999;50.940;3.998;2023-07-13T08:05:15;22.10;1.00
48946;DHT22;34999;50.940;3.998;2023-07-13T08:07:46;21.90;1.00
48946;DHT22;34999;50.940;3.998;2023-07-13T08:10:17;21.50;1.00
48946;DHT22;34999;50.940;3.998;2023-07-13T08:12:45;21.20;1.00
48946;DHT22;34999;50.940;3.998;2023-07-13T08:15:34;21.00;1.00
48946;DHT22;34999;50.940;3.998;2023-07-13T08:18:04;21.30;1.00
48946;DHT22;34999;50.940;3.998;2023-07-13T08:20:36;21.40;1.00
48946;DHT22;34999;50.940;3.998;2023-07-13T08:23:04;21.40;1.00
48946;DHT22;34999;50.940;3.998;2023-07-13T08:25:32;21.70;1.00
48946;DHT22;34999;50.940;3.998;2023-07-13T08:28:02;22.10;1.00
48946;DHT22;34999;50.940;3.998;2023-07-13T08:30:31;22.80;1.00
48946;DHT22;34999;50.940;3.998;2023-07-13T08:33:01;23.60;99.90
48946;DHT22;34999;50.940;3.998;2023-07-13T08:35:29;24.20;1.00
48946;DHT22;34999;50.940;3.998;2023-07-13T08:37:58;24.50;1.00
48946;DHT22;34999;50.940;3.998;2023-07-13T08:40:28;24.70;1.00
48946;DHT22;34999;50.940;3.998;2023-07-13T08:42:58;24.90;1.00
48946;DHT22;34999;50.940;3.998;2023-07-13T08:45:30;25.30;1.00
48946;DHT22;34999;50.940;3.998;2023-07-13T08:48:08;25.00;99.90
48946;DHT22;34999;50.940;3.998;2023-07-13T08:50:51;25.20;26.00
48946;DHT22;34999;50.940;3.998;2023-07-13T08:53:33;25.10;11.30
48946;DHT22;34999;50.940;3.998;2023-07-13T08:56:02;24.80;80.50
48946;DHT22;34999;50.940;3.998;2023-07-13T08:58:33;24.60;99.90
48946;DHT22;34999;50.940;3.998;2023-07-13T09:01:12;25.20;82.90
48946;DHT22;34999;50.940;3.998;2023-07-13T09:03:49;26.00;1.00
48946;DHT22;34999;50.940;3.998;2023-07-13T09:06:21;26.80;1.00
48946;DHT22;34999;50.940;3.998;2023-07-13T09:08:57;26.90;99.90
48946;DHT22;34999;50.940;3.998;2023-07-13T09:11:36;26.60;1.00
48946;DHT22;34999;50.940;3.998;2023-07-13T09:14:26;26.90;99.90
48946;DHT22;34999;50.940;3.998;2023-07-13T09:17:01;26.90;99.90
48946;DHT22;34999;50.940;3.998;2023-07-13T09:19:33;26.50;1.00
48946;DHT22;34999;50.940;3.998;2023-07-13T09:22:04;26.10;1.00
48946;DHT22;34999;50.940;3.998;2023-07-13T09:24:37;26.00;1.00
48946;DHT22;34999;50.940;3.998;2023-07-13T09:27:14;26.70;1.00
48946;DHT22;34999;50.940;3.998;2023-07-13T09:29:49;27.60;99.90
48946;DHT22;34999;50.940;3.998;2023-07-13T09:32:21;28.00;99.90
48946;DHT22;34999;50.940;3.998;2023-07-13T09:34:53;28.00;99.90
48946;DHT22;34999;50.940;3.998;2023-07-13T09:37:24;27.80;99.90
48946;DHT22;34999;50.940;3.998;2023-07-13T09:39:56;28.30;99.90
48946;DHT22;34999;50.940;3.998;2023-07-13T09:42:25;28.70;1.00
48946;DHT22;34999;50.940;3.998;2023-07-13T09:44:56;28.10;1.00
48946;DHT22;34999;50.940;3.998;2023-07-13T09:47:26;27.40;1.00
48946;DHT22;34999;50.940;3.998;2023-07-13T09:50:01;26.70;1.00
48946;DHT22;34999;50.940;3.998;2023-07-13T09:52:40;25.90;99.90
48946;DHT22;34999;50.940;3.998;2023-07-13T09:55:24;25.80;1.00
48946;DHT22;34999;50.940;3.998;2023-07-13T09:57:53;26.00;1.00
48946;DHT22;34999;50.940;3.998;2023-07-13T10:00:23;25.90;1.00
48946;DHT22;34999;50.940;3.998;2023-07-13T10:03:01;26.40;99.90
48946;DHT22;34999;50.940;3.998;2023-07-13T10:05:42;26.60;84.90
48946;DHT22;34999;50.940;3.998;2023-07-13T10:08:24;26.40;99.90
48946;DHT22;34999;50.940;3.998;2023-07-13T10:10:58;26.20;99.90
48946;DHT22;34999;50.940;3.998;2023-07-13T10:13:30;26.80;99.90
48946;DHT22;34999;50.940;3.998;2023-07-13T10:16:00;27.20;1.00
48946;DHT22;34999;50.940;3.998;2023-07-13T10:18:29;26.60;99.90
48946;DHT22;34999;50.940;3.998;2023-07-13T10:21:11;26.00;99.90
48946;DHT22;34999;50.940;3.998;2023-07-13T10:23:44;25.10;99.90
48946;DHT22;34999;50.940;3.998;2023-07-13T10:26:19;25.50;99.90
48946;DHT22;34999;50.940;3.998;2023-07-13T10:28:52;26.20;99.90
48946;DHT22;34999;50.940;3.998;2023-07-13T10:31:22;26.70;99.90
48946;DHT22;34999;50.940;3.998;2023-07-13T10:33:52;27.10;1.00
48946;DHT22;34999;50.940;3.998;2023-07-13T10:36:29;27.50;1.00
48946;DHT22;34999;50.940;3.998;2023-07-13T10:39:02;26.70;1.00
48946;DHT22;34999;50.940;3.998;2023-07-13T10:41:34;26.50;1.00
48946;DHT22;34999;50.940;3.998;2023-07-13T10:44:04;26.50;1.00
48946;DHT22;34999;50.940;3.998;2023-07-13T10:46:38;27.10;1.00
48946;DHT22;34999;50.940;3.998;2023-07-13T10:49:07;27.50;1.00
48946;DHT22;34999;50.940;3.998;2023-07-13T10:51:39;28.00;1.00
48946;DHT22;34999;50.940;3.998;2023-07-13T10:54:15;28.40;1.00
48946;DHT22;34999;50.940;3.998;2023-07-13T10:56:50;28.60;99.90
48946;DHT22;34999;50.940;3.998;2023-07-13T10:59:24;28.40;99.90
48946;DHT22;34999;50.940;3.998;2023-07-13T11:01:58;27.60;99.90
48946;DHT22;34999;50.940;3.998;2023-07-13T11:04:29;27.30;1.00
48946;DHT22;34999;50.940;3.998;2023-07-13T11:07:19;27.20;99.90
48946;DHT22;34999;50.940;3.998;2023-07-13T11:09:50;26.60;99.90
48946;DHT22;34999;50.940;3.998;2023-07-13T11:12:49;26.20;1.00
48946;DHT22;34999;50.940;3.998;2023-07-13T11:15:31;26.20;1.00
48946;DHT22;34999;50.940;3.998;2023-07-13T11:18:03;26.00;1.00
48946;DHT22;34999;50.940;3.998;2023-07-13T11:20:37;25.80;1.00
48946;DHT22;34999;50.940;3.998;2023-07-13T11:23:27;25.60;1.00
48946;DHT22;34999;50.940;3.998;2023-07-13T11:25:58;25.30;1.00
48946;DHT22;34999;50.940;3.998;2023-07-13T11:28:30;24.90;99.90
48946;DHT22;34999;50.940;3.998;2023-07-13T11:31:02;24.40;1.00
48946;DHT22;34999;50.940;3.998;2023-07-13T11:33:57;23.40;1.00
48946;DHT22;34999;50.940;3.998;2023-07-13T11:36:31;22.40;1.00
48946;DHT22;34999;50.940;3.998;2023-07-13T11:39:13;20.80;1.00
48946;DHT22;34999;50.940;3.998;2023-07-13T11:41:48;19.40;1.00
48946;DHT22;34999;50.940;3.998;2023-07-13T11:44:20;18.70;1.00
48946;DHT22;34999;50.940;3.998;2023-07-13T11:46:51;18.40;18.50
48946;DHT22;34999;50.940;3.998;2023-07-13T11:49:23;18.50;41.30
48946;DHT22;34999;50.940;3.998;2023-07-13T11:51:54;18.60;78.90
48946;DHT22;34999;50.940;3.998;2023-07-13T11:54:27;18.50;42.20
48946;DHT22;34999;50.940;3.998;2023-07-13T11:56:58;18.50;85.00
48946;DHT22;34999;50.940;3.998;2023-07-13T11:59:30;18.70;99.90
48946;DHT22;34999;50.940;3.998;2023-07-13T12:02:00;18.90;43.00
48946;DHT22;34999;50.940;3.998;2023-07-13T12:04:32;19.10;26.20
48946;DHT22;34999;50.940;3.998;2023-07-13T12:07:06;19.30;39.30
48946;DHT22;34999;50.940;3.998;2023-07-13T12:09:37;19.50;47.80
48946;DHT22;34999;50.940;3.998;2023-07-13T12:12:11;19.70;9.40
48946;DHT22;34999;50.940;3.998;2023-07-13T12:14:41;20.00;30.80
48946;DHT22;34999;50.940;3.998;2023-07-13T12:17:13;20.40;1.00
48946;DHT22;34999;50.940;3.998;2023-07-13T12:19:43;20.30;1.00
48946;DHT22;34999;50.940;3.998;2023-07-13T12:22:13;20.40;1.00
48946;DHT22;34999;50.940;3.998;2023-07-13T12:24:44;20.50;1.00
48946;DHT22;34999;50.940;3.998;2023-07-13T12:27:21;20.40;1.00
48946;DHT22;34999;50.940;3.998;2023-07-13T12:29:56;20.40;1.00
48946;DHT22;34999;50.940;3.998;2023-07-13T12:32:26;20.40;1.00
48946;DHT22;34999;50.940;3.998;2023-07-13T12:35:03;20.40;1.00
48946;DHT22;34999;50.940;3.998;2023-07-13T12:37:34;20.50;1.00
48946;DHT22;34999;50.940;3.998;2023-07-13T12:40:05;20.80;1.00
48946;DHT22;34999;50.940;3.998;2023-07-13T12:42:40;20.80;1.00
48946;DHT22;34999;50.940;3.998;2023-07-13T12:45:18;21.00;1.00
48946;DHT22;34999;50.940;3.998;2023-07-13T12:47:49;20.90;1.00
48946;DHT22;34999;50.940;3.998;2023-07-13T12:50:20;21.10;1.00
48946;DHT22;34999;50.940;3.998;2023-07-13T12:52:51;21.30;1.00
48946;DHT22;34999;50.940;3.998;2023-07-13T12:55:22;21.50;1.00
48946;DHT22;34999;50.940;3.998;2023-07-13T12:57:53;21.60;1.00
48946;DHT22;34999;50.940;3.998;2023-07-13T13:00:26;21.60;1.00
48946;DHT22;34999;50.940;3.998;2023-07-13T13:02:56;21.50;1.00
48946;DHT22;34999;50.940;3.998;2023-07-13T13:05:47;21.30;1.00
48946;DHT22;34999;50.940;3.998;2023-07-13T13:08:16;21.50;1.00
48946;DHT22;34999;50.940;3.998;2023-07-13T13:10:46;21.60;1.00
48946;DHT22;34999;50.940;3.998;2023-07-13T13:13:14;21.60;1.00
48946;DHT22;34999;50.940;3.998;2023-07-13T13:15:42;21.60;1.00
48946;DHT22;34999;50.940;3.998;2023-07-13T13:18:16;21.80;1.00
48946;DHT22;34999;50.940;3.998;2023-07-13T13:20:46;22.30;1.00
48946;DHT22;34999;50.940;3.998;2023-07-13T13:23:17;22.60;1.00
48946;DHT22;34999;50.940;3.998;2023-07-13T13:25:49;22.90;1.00
48946;DHT22;34999;50.940;3.998;2023-07-13T13:28:19;23.20;1.00
48946;DHT22;34999;50.940;3.998;2023-07-13T13:30:49;23.30;1.00
48946;DHT22;34999;50.940;3.998;2023-07-13T13:33:19;23.00;1.00
48946;DHT22;34999;50.940;3.998;2023-07-13T13:35:49;22.80;1.00
48946;DHT22;34999;50.940;3.998;2023-07-13T13:38:20;22.70;1.00
48946;DHT22;34999;50.940;3.998;2023-07-13T13:40:51;22.50;1.00
48946;DHT22;34999;50.940;3.998;2023-07-13T13:43:23;22.30;1.00
48946;DHT22;34999;50.940;3.998;2023-07-13T13:45:55;22.10;1.00
48946;DHT22;34999;50.940;3.998;2023-07-13T13:48:30;22.10;1.00
48946;DHT22;34999;50.940;3.998;2023-07-13T13:51:00;22.10;1.00
48946;DHT22;34999;50.940;3.998;2023-07-13T13:53:29;22.20;1.00
48946;DHT22;34999;50.940;3.998;2023-07-13T13:55:58;22.40;1.00
48946;DHT22;34999;50.940;3.998;2023-07-13T13:58:29;22.40;1.00
48946;DHT22;34999;50.940;3.998;2023-07-13T14:00:58;22.80;1.00
48946;DHT22;34999;50.940;3.998;2023-07-13T14:03:27;23.30;1.00
48946;DHT22;34999;50.940;3.998;2023-07-13T14:05:56;23.80;99.90
48946;DHT22;34999;50.940;3.998;2023-07-13T14:08:24;24.60;99.90
48946;DHT22;34999;50.940;3.998;2023-07-13T14:10:55;24.90;1.00
48946;DHT22;34999;50.940;3.998;2023-07-13T14:13:29;25.40;1.00
48946;DHT22;34999;50.940;3.998;2023-07-13T14:15:59;25.70;1.00
48946;DHT22;34999;50.940;3.998;2023-07-13T14:18:28;25.70;1.00
48946;DHT22;34999;50.940;3.998;2023-07-13T14:20:56;26.20;93.30
48946;DHT22;34999;50.940;3.998;2023-07-13T14:23:25;26.10;99.90
48946;DHT22;34999;50.940;3.998;2023-07-13T14:25:53;26.00;99.90
48946;DHT22;34999;50.940;3.998;2023-07-13T14:28:24;26.00;99.90
48946;DHT22;34999;50.940;3.998;2023-07-13T14:30:54;26.20;99.90
48946;DHT22;34999;50.940;3.998;2023-07-13T14:33:22;26.40;99.90
48946;DHT22;34999;50.940;3.998;2023-07-13T14:35:51;26.60;1.00
48946;DHT22;34999;50.940;3.998;2023-07-13T14:38:20;26.60;99.90
48946;DHT22;34999;50.940;3.998;2023-07-13T14:40:49;26.20;1.00
48946;DHT22;34999;50.940;3.998;2023-07-13T14:43:17;26.10;1.00
48946;DHT22;34999;50.940;3.998;2023-07-13T14:45:48;25.90;1.00
48946;DHT22;34999;50.940;3.998;2023-07-13T14:48:21;25.60;36.80
48946;DHT22;34999;50.940;3.998;2023-07-13T14:50:54;25.30;1.00
48946;DHT22;34999;50.940;3.998;2023-07-13T14:53:25;25.20;99.90
48946;DHT22;34999;50.940;3.998;2023-07-13T14:55:54;25.20;99.90
48946;DHT22;34999;50.940;3.998;2023-07-13T14:58:23;25.40;99.90
48946;DHT22;34999;50.940;3.998;2023-07-13T15:00:52;25.80;1.00
48946;DHT22;34999;50.940;3.998;2023-07-13T15:03:24;26.10;99.90
48946;DHT22;34999;50.940;3.998;2023-07-13T15:05:53;26.40;99.90
48946;DHT22;34999;50.940;3.998;2023-07-13T15:08:22;26.50;1.00
48946;DHT22;34999;50.940;3.998;2023-07-13T15:10:50;26.50;1.00
48946;DHT22;34999;50.940;3.998;2023-07-13T15:13:20;26.80;1.00
48946;DHT22;34999;50.940;3.998;2023-07-13T15:15:51;26.50;1.00
48946;DHT22;34999;50.940;3.998;2023-07-13T15:18:23;26.20;1.00
48946;DHT22;34999;50.940;3.998;2023-07-13T15:20:52;26.10;1.00
48946;DHT22;34999;50.940;3.998;2023-07-13T15:23:23;26.20;1.00
48946;DHT22;34999;50.940;3.998;2023-07-13T15:25:53;26.00;1.00
48946;DHT22;34999;50.940;3.998;2023-07-13T15:28:21;26.10;1.00
48946;DHT22;34999;50.940;3.998;2023-07-13T15:30:50;26.30;1.00
48946;DHT22;34999;50.940;3.998;2023-07-13T15:33:24;26.30;1.00
48946;DHT22;34999;50.940;3.998;2023-07-13T15:35:54;26.00;1.00
48946;DHT22;34999;50.940;3.998;2023-07-13T15:38:24;26.20;1.00
48946;DHT22;34999;50.940;3.998;2023-07-13T15:40:53;26.30;1.00
48946;DHT22;34999;50.940;3.998;2023-07-13T15:43:22;25.90;1.00
48946;DHT22;34999;50.940;3.998;2023-07-13T15:45:50;25.70;1.00
48946;DHT22;34999;50.940;3.998;2023-07-13T15:48:21;25.50;1.00
48946;DHT22;34999;50.940;3.998;2023-07-13T15:50:53;25.80;1.00
48946;DHT22;34999;50.940;3.998;2023-07-13T15:53:23;25.70;1.00
48946;DHT22;34999;50.940;3.998;2023-07-13T15:55:52;25.50;1.00
48946;DHT22;34999;50.940;3.998;2023-07-13T15:58:21;25.10;66.90
48946;DHT22;34999;50.940;3.998;2023-07-13T16:00:49;24.90;69.00